Anne Sibum — C4YC2 — position and weather

sailwx.info

Track history (hours):
 
Tides and Currents Weather Stations Pressure Air Temp Water Temp Dewpoint Dewpoint Depression Visibility Wind Speed Wind Dir Waves Ship Positions

Anne Sibum

Last reported at 2014-Aug-29 11:30 UTC. Time now 2014-Aug-29 20:26 UTC.
Position N 54°32' E 011°28'.

Length 151 m; draft 7.1 m.

Type: Cargo ship. MMSI: 209322000.

Date/timePositionNaut miles runAvg speedWind from/ knotsBaromVisibWave heightAir tempDewpointWater temp
2014-Aug-29 11:30N 54°32' E 011°28'1011.1
2014-Aug-29 10:33N 54°28' E 011°44'0 0.1
2014-Aug-29 09:31N 54°28' E 011°44'0 0.0
2014-Aug-29 08:33N 54°28' E 011°44'0 0.0
2014-Aug-29 07:30N 54°28' E 011°44'0 0.0
2014-Aug-29 06:32N 54°28' E 011°44'0 0.0
2014-Aug-29 05:32N 54°28' E 011°44'0 0.5
2014-Aug-29 04:33N 54°27' E 011°44'1414.5
2014-Aug-29 03:34N 54°27' E 012°09'1816.2
2014-Aug-29 02:26N 54°42' E 012°27'1517.0
2014-Aug-29 01:33N 54°49' E 012°49'1717.4
2014-Aug-29 00:33N 54°55' E 013°17'1716.9
2014-Aug-28 23:33N 55°01' E 013°45'1716.6
2014-Aug-28 22:33N 55°10' E 014°10'1817.4
2014-Aug-28 21:32N 55°23' E 014°29'1717.0
2014-Aug-28 20:33N 55°33' E 014°54'1717.1
2014-Aug-28 19:33N 55°41' E 015°20'1817.2
2014-Aug-28 18:29N 55°50' E 015°49'32516.7
2014-Aug-27 23:05N 59°35' E 023°06'917.0
2014-Aug-27 22:33N 59°38' E 023°23'1716.8
2014-Aug-27 21:33N 59°43' E 023°55'8216.3
2014-Aug-27 16:32N 60°01' E 026°33'10713.2
2014-Aug-27 08:25N 59°54' E 030°07'2 0.3
2014-Aug-27 01:21N 59°53' E 030°12'0 0.1
2014-Aug-27 00:33N 59°53' E 030°11'0 0.0
2014-Aug-26 23:32N 59°53' E 030°11'0 0.0
2014-Aug-26 22:32N 59°53' E 030°11'0 0.0
2014-Aug-26 21:27N 59°53' E 030°11'0 0.0
2014-Aug-26 20:31N 59°53' E 030°11'0 0.0
2014-Aug-26 19:30N 59°53' E 030°12'0 0.0
2014-Aug-26 18:30N 59°53' E 030°11'0 0.0
2014-Aug-26 17:30N 59°53' E 030°11'0 0.0
2014-Aug-26 16:32N 59°53' E 030°11'0 0.0
2014-Aug-26 15:29N 59°53' E 030°11'0 0.0
2014-Aug-26 14:31N 59°53' E 030°12'0 0.0
2014-Aug-26 13:31N 59°53' E 030°11'0 0.0
2014-Aug-26 12:33N 59°53' E 030°11'0 0.0
2014-Aug-26 11:33N 59°53' E 030°11'0 0.0
2014-Aug-26 10:33N 59°53' E 030°11'0 0.0
2014-Aug-26 09:32N 59°53' E 030°11'0 0.0
2014-Aug-26 08:32N 59°53' E 030°11'0 0.0
2014-Aug-26 07:31N 59°53' E 030°11'0 0.0
2014-Aug-26 06:31N 59°53' E 030°11'0 0.0
2014-Aug-26 05:33N 59°53' E 030°11'0 0.0
2014-Aug-26 04:33N 59°53' E 030°12'0 0.0
2014-Aug-26 03:30N 59°53' E 030°11'0 0.0
2014-Aug-26 02:32N 59°53' E 030°12'0 0.0
2014-Aug-26 01:32N 59°53' E 030°11'0 0.0
2014-Aug-26 00:28N 59°53' E 030°12'0 0.0
2014-Aug-25 23:31N 59°53' E 030°12'0 0.0
2014-Aug-25 22:33N 59°53' E 030°11'0 0.0
2014-Aug-25 21:33N 59°53' E 030°11'1 0.1
2014-Aug-25 13:11N 59°53' E 030°10'105 3.0
2014-Aug-24 02:17N 59°59' E 026°42'1214.9
2014-Aug-24 01:28N 59°57' E 026°18'6415.4
2014-Aug-23 21:18N 59°42' E 024°14'1814.9
2014-Aug-23 20:04N 59°36' E 023°39'714.7
2014-Aug-23 19:34N 59°33' E 023°26'34214.7
2014-Aug-22 20:16N 55°42' E 015°37'1114.9
2014-Aug-22 19:33N 55°36' E 015°21'1515.1
2014-Aug-22 18:33N 55°29' E 014°57'1515.0
2014-Aug-22 17:33N 55°20' E 014°36'1614.9
2014-Aug-22 16:28N 55°08' E 014°17'2814.6
2014-Aug-22 14:33N 54°55' E 013°35'1515.3
2014-Aug-22 13:33N 54°50' E 013°10'1414.3
2014-Aug-22 12:33N 54°45' E 012°46'1514.5
2014-Aug-22 11:33N 54°38' E 012°24'1513.9
2014-Aug-22 10:30N 54°26' E 012°11'1414.3
2014-Aug-22 09:33N 54°24' E 011°48'77 9.5
2014-Aug-22 01:29N 54°15' E 009°37'7 7.6
2014-Aug-22 00:33N 54°11' E 009°27'7 6.6
2014-Aug-21 23:33N 54°06' E 009°20'8 8.2
2014-Aug-21 22:34N 53°58' E 009°15'6 5.7
2014-Aug-21 21:33N 53°54' E 009°09'2 1.7
2014-Aug-21 20:33N 53°53' E 009°06'1413.6
2014-Aug-21 19:33N 53°52' E 008°43'1615.8
2014-Aug-21 18:33N 53°59' E 008°19'1514.3
2014-Aug-21 17:33N 53°54' E 007°56'1111.2
2014-Aug-21 16:33N 53°47' E 008°10'1414.3
2014-Aug-21 15:33N 53°37' E 008°28'3 2.9
2014-Aug-21 14:28N 53°35' E 008°32'0 0.0
2014-Aug-21 13:28N 53°35' E 008°32'0 0.0
2014-Aug-21 12:33N 53°35' E 008°32'0 0.0
2014-Aug-21 11:33N 53°35' E 008°32'0 0.0
2014-Aug-21 10:32N 53°35' E 008°32'1 1.4
2014-Aug-21 09:33N 53°36' E 008°30'1414.0
2014-Aug-21 08:33N 53°45' E 008°12'1413.8
2014-Aug-21 07:33N 53°53' E 007°53'1512.4
2014-Aug-21 06:21N 54°01' E 008°15'1012.4
2014-Aug-21 05:33N 53°58' E 008°31'1312.9
2014-Aug-21 04:33N 53°50' E 008°49'1414.5
2014-Aug-21 03:33N 53°53' E 009°13'1616.0
2014-Aug-21 02:33N 53°41' E 009°30'1313.4
2014-Aug-21 01:33N 53°33' E 009°49'3 3.2
2014-Aug-21 00:29N 53°32' E 009°55'0 0.0
2014-Aug-20 23:29N 53°32' E 009°55'0 0.0
2014-Aug-20 22:23N 53°32' E 009°55'0 0.0
2014-Aug-20 21:28N 53°32' E 009°55'0 0.0
2014-Aug-20 20:25N 53°32' E 009°55'0 0.0
2014-Aug-20 19:27N 53°32' E 009°55'0 0.0
2014-Aug-20 18:33N 53°32' E 009°55'0 0.0
2014-Aug-20 17:26N 53°32' E 009°55'0 0.0
2014-Aug-20 16:32N 53°32' E 009°55'0 0.0
2014-Aug-20 15:32N 53°32' E 009°55'0 0.0
2014-Aug-20 14:31N 53°32' E 009°55'1 1.5
2014-Aug-20 13:33N 53°31' E 009°56'1 0.9
2014-Aug-20 12:32N 53°30' E 009°56'0 0.0
2014-Aug-20 11:31N 53°30' E 009°56'0 0.0
2014-Aug-20 10:31N 53°30' E 009°56'0 0.0
2014-Aug-20 09:30N 53°30' E 009°56'0 0.0
2014-Aug-20 08:24N 53°30' E 009°56'0 0.0
2014-Aug-20 07:20N 53°30' E 009°56'0 0.0
2014-Aug-20 02:21N 53°30' E 009°56'0 0.0
2014-Aug-19 23:14N 53°30' E 009°56'0 0.0
2014-Aug-19 22:22N 53°30' E 009°56'0 0.0
2014-Aug-19 21:31N 53°30' E 009°56'0 0.0
2014-Aug-19 20:33N 53°30' E 009°56'0 0.0
2014-Aug-19 19:12N 53°30' E 009°56'0 0.0
2014-Aug-19 18:27N 53°30' E 009°56'0 0.0
2014-Aug-19 17:29N 53°30' E 009°56'0 0.0
2014-Aug-19 16:23N 53°30' E 009°56'1 1.8
2014-Aug-19 15:33N 53°32' E 009°56'1 1.2
2014-Aug-19 14:33N 53°32' E 009°54'0 0.0
2014-Aug-19 13:34N 53°32' E 009°54'2 2.1
2014-Aug-19 12:33N 53°32' E 009°58'  
Track history (hours):
 
Tides and Currents Weather Stations Pressure Air Temp Water Temp Dewpoint Dewpoint Depression Visibility Wind Speed Wind Dir Waves Ship Positions

Anne Sibum

Last reported at 2014-Aug-29 11:30 UTC. Time now 2014-Aug-29 20:26 UTC.
Position N 54°32' E 011°28'.

Length 151 m; draft 7.1 m.

Type: Cargo ship. MMSI: 209322000.

Date/timePositionNaut miles runAvg speedWind from/ knotsBaromVisibWave heightAir tempDewpointWater temp
2014-Aug-29 11:30N 54°32' E 011°28'1011.1
2014-Aug-29 10:33N 54°28' E 011°44'0 0.1
2014-Aug-29 09:31N 54°28' E 011°44'0 0.0
2014-Aug-29 08:33N 54°28' E 011°44'0 0.0
2014-Aug-29 07:30N 54°28' E 011°44'0 0.0
2014-Aug-29 06:32N 54°28' E 011°44'0 0.0
2014-Aug-29 05:32N 54°28' E 011°44'0 0.5
2014-Aug-29 04:33N 54°27' E 011°44'1414.5
2014-Aug-29 03:34N 54°27' E 012°09'1816.2
2014-Aug-29 02:26N 54°42' E 012°27'1517.0
2014-Aug-29 01:33N 54°49' E 012°49'1717.4
2014-Aug-29 00:33N 54°55' E 013°17'1716.9
2014-Aug-28 23:33N 55°01' E 013°45'1716.6
2014-Aug-28 22:33N 55°10' E 014°10'1817.4
2014-Aug-28 21:32N 55°23' E 014°29'1717.0
2014-Aug-28 20:33N 55°33' E 014°54'1717.1
2014-Aug-28 19:33N 55°41' E 015°20'1817.2
2014-Aug-28 18:29N 55°50' E 015°49'32516.7
2014-Aug-27 23:05N 59°35' E 023°06'917.0
2014-Aug-27 22:33N 59°38' E 023°23'1716.8
2014-Aug-27 21:33N 59°43' E 023°55'8216.3
2014-Aug-27 16:32N 60°01' E 026°33'10713.2
2014-Aug-27 08:25N 59°54' E 030°07'2 0.3
2014-Aug-27 01:21N 59°53' E 030°12'0 0.1
2014-Aug-27 00:33N 59°53' E 030°11'0 0.0
2014-Aug-26 23:32N 59°53' E 030°11'0 0.0
2014-Aug-26 22:32N 59°53' E 030°11'0 0.0
2014-Aug-26 21:27N 59°53' E 030°11'0 0.0
2014-Aug-26 20:31N 59°53' E 030°11'0 0.0
2014-Aug-26 19:30N 59°53' E 030°12'0 0.0
2014-Aug-26 18:30N 59°53' E 030°11'0 0.0
2014-Aug-26 17:30N 59°53' E 030°11'0 0.0
2014-Aug-26 16:32N 59°53' E 030°11'0 0.0
2014-Aug-26 15:29N 59°53' E 030°11'0 0.0
2014-Aug-26 14:31N 59°53' E 030°12'0 0.0
2014-Aug-26 13:31N 59°53' E 030°11'0 0.0
2014-Aug-26 12:33N 59°53' E 030°11'0 0.0
2014-Aug-26 11:33N 59°53' E 030°11'0 0.0
2014-Aug-26 10:33N 59°53' E 030°11'0 0.0
2014-Aug-26 09:32N 59°53' E 030°11'0 0.0
2014-Aug-26 08:32N 59°53' E 030°11'0 0.0
2014-Aug-26 07:31N 59°53' E 030°11'0 0.0
2014-Aug-26 06:31N 59°53' E 030°11'0 0.0
2014-Aug-26 05:33N 59°53' E 030°11'0 0.0
2014-Aug-26 04:33N 59°53' E 030°12'0 0.0
2014-Aug-26 03:30N 59°53' E 030°11'0 0.0
2014-Aug-26 02:32N 59°53' E 030°12'0 0.0
2014-Aug-26 01:32N 59°53' E 030°11'0 0.0
2014-Aug-26 00:28N 59°53' E 030°12'0 0.0
2014-Aug-25 23:31N 59°53' E 030°12'0 0.0
2014-Aug-25 22:33N 59°53' E 030°11'0 0.0
2014-Aug-25 21:33N 59°53' E 030°11'1 0.1
2014-Aug-25 13:11N 59°53' E 030°10'105 3.0
2014-Aug-24 02:17N 59°59' E 026°42'1214.9
2014-Aug-24 01:28N 59°57' E 026°18'6415.4
2014-Aug-23 21:18N 59°42' E 024°14'1814.9
2014-Aug-23 20:04N 59°36' E 023°39'714.7
2014-Aug-23 19:34N 59°33' E 023°26'34214.7
2014-Aug-22 20:16N 55°42' E 015°37'1114.9
2014-Aug-22 19:33N 55°36' E 015°21'1515.1
2014-Aug-22 18:33N 55°29' E 014°57'1515.0
2014-Aug-22 17:33N 55°20' E 014°36'1614.9
2014-Aug-22 16:28N 55°08' E 014°17'2814.6
2014-Aug-22 14:33N 54°55' E 013°35'1515.3
2014-Aug-22 13:33N 54°50' E 013°10'1414.3
2014-Aug-22 12:33N 54°45' E 012°46'1514.5
2014-Aug-22 11:33N 54°38' E 012°24'1513.9
2014-Aug-22 10:30N 54°26' E 012°11'1414.3
2014-Aug-22 09:33N 54°24' E 011°48'77 9.5
2014-Aug-22 01:29N 54°15' E 009°37'7 7.6
2014-Aug-22 00:33N 54°11' E 009°27'7 6.6
2014-Aug-21 23:33N 54°06' E 009°20'8 8.2
2014-Aug-21 22:34N 53°58' E 009°15'6 5.7
2014-Aug-21 21:33N 53°54' E 009°09'2 1.7
2014-Aug-21 20:33N 53°53' E 009°06'1413.6
2014-Aug-21 19:33N 53°52' E 008°43'1615.8
2014-Aug-21 18:33N 53°59' E 008°19'1514.3
2014-Aug-21 17:33N 53°54' E 007°56'1111.2
2014-Aug-21 16:33N 53°47' E 008°10'1414.3
2014-Aug-21 15:33N 53°37' E 008°28'3 2.9
2014-Aug-21 14:28N 53°35' E 008°32'0 0.0
2014-Aug-21 13:28N 53°35' E 008°32'0 0.0
2014-Aug-21 12:33N 53°35' E 008°32'0 0.0
2014-Aug-21 11:33N 53°35' E 008°32'0 0.0
2014-Aug-21 10:32N 53°35' E 008°32'1 1.4
2014-Aug-21 09:33N 53°36' E 008°30'1414.0
2014-Aug-21 08:33N 53°45' E 008°12'1413.8
2014-Aug-21 07:33N 53°53' E 007°53'1512.4
2014-Aug-21 06:21N 54°01' E 008°15'1012.4
2014-Aug-21 05:33N 53°58' E 008°31'1312.9
2014-Aug-21 04:33N 53°50' E 008°49'1414.5
2014-Aug-21 03:33N 53°53' E 009°13'1616.0
2014-Aug-21 02:33N 53°41' E 009°30'1313.4
2014-Aug-21 01:33N 53°33' E 009°49'3 3.2
2014-Aug-21 00:29N 53°32' E 009°55'0 0.0
2014-Aug-20 23:29N 53°32' E 009°55'0 0.0
2014-Aug-20 22:23N 53°32' E 009°55'0 0.0
2014-Aug-20 21:28N 53°32' E 009°55'0 0.0
2014-Aug-20 20:25N 53°32' E 009°55'0 0.0
2014-Aug-20 19:27N 53°32' E 009°55'0 0.0
2014-Aug-20 18:33N 53°32' E 009°55'0 0.0
2014-Aug-20 17:26N 53°32' E 009°55'0 0.0
2014-Aug-20 16:32N 53°32' E 009°55'0 0.0
2014-Aug-20 15:32N 53°32' E 009°55'0 0.0
2014-Aug-20 14:31N 53°32' E 009°55'1 1.5
2014-Aug-20 13:33N 53°31' E 009°56'1 0.9
2014-Aug-20 12:32N 53°30' E 009°56'0 0.0
2014-Aug-20 11:31N 53°30' E 009°56'0 0.0
2014-Aug-20 10:31N 53°30' E 009°56'0 0.0
2014-Aug-20 09:30N 53°30' E 009°56'0 0.0
2014-Aug-20 08:24N 53°30' E 009°56'0 0.0
2014-Aug-20 07:20N 53°30' E 009°56'0 0.0
2014-Aug-20 02:21N 53°30' E 009°56'0 0.0
2014-Aug-19 23:14N 53°30' E 009°56'0 0.0
2014-Aug-19 22:22N 53°30' E 009°56'0 0.0
2014-Aug-19 21:31N 53°30' E 009°56'0 0.0
2014-Aug-19 20:33N 53°30' E 009°56'0 0.0
2014-Aug-19 19:12N 53°30' E 009°56'0 0.0
2014-Aug-19 18:27N 53°30' E 009°56'0 0.0
2014-Aug-19 17:29N 53°30' E 009°56'0 0.0
2014-Aug-19 16:23N 53°30' E 009°56'1 1.8
2014-Aug-19 15:33N 53°32' E 009°56'1 1.2
2014-Aug-19 14:33N 53°32' E 009°54'0 0.0
2014-Aug-19 13:34N 53°32' E 009°54'2 2.1
2014-Aug-19 12:33N 53°32' E 009°58'  

Dump ship's entire track history